Flight Track Log - Related Links

Times and Time Zones

All times are in EDT time to prevent confusion due to time zone crossing. See the ACA831 flight status page for this flight to view local times or setup timezone preferences in your user account.


Time Position Orientation Groundspeed Altitude Reporting Facility
EDT Latitude Longitude Course Direction KTS MPH feet Rate Location/Type
Mon 06:24:11 AM 46.2330 6.1060 272° West 5 6  Level FlightAware ADS-B
Mon 06:24:41 AM 46.2330 6.1050 270° West 5 6 206 Level FlightAware ADS-B
Mon 06:25:11 AM 46.2330 6.1040 270° West 5 6 216 Level FlightAware ADS-B
Mon 06:26:06 AM 46.2320 6.1030 215° Southwest 6 7 226 Level FlightAware ADS-B
Mon 06:26:36 AM 46.2310 6.1030 180° South 3 3 249 Level FlightAware ADS-B
Mon 06:27:31 AM 46.2310 6.1010 270° West 4 5 263 Level FlightAware ADS-B
Mon 06:27:56 AM 46.2300 6.1000 215° Southwest 9 10 294 Level FlightAware ADS-B
Mon 06:28:11 AM 46.2290 6.1000 180° South 9 10 310 Level FlightAware ADS-B
Mon 06:28:51 AM 46.2280 6.0970 244° Southwest 11 13 321 Level FlightAware ADS-B
Mon 06:29:21 AM 46.2270 6.0960 215° Southwest 13 15 354 Level FlightAware ADS-B
Mon 06:29:36 AM 46.2260 6.0950 215° Southwest 5 6 383 Level FlightAware ADS-B
Mon 06:30:06 AM 46.2260 6.0940 270° West 7 8 400 Level FlightAware ADS-B
Mon 06:30:31 AM 46.2260 6.0930 270° West 2 2 438 Level FlightAware ADS-B
Mon 06:31:26 AM 46.2250 6.0930 180° South 1 1 476 Level FlightAware ADS-B
Mon 06:33:16 AM 46.2250 6.0920 270° West 4 5 587 Level FlightAware ADS-B
Mon 06:33:41 AM 46.2260 6.0920 360° North 6 7 1,104 Level FlightAware ADS-B
Mon 06:34:16 AM 46.2270 6.0930 35° Northeast 31 36 1,380 Level FlightAware ADS-B
Mon 06:34:31 AM 46.2290 6.0960 46° Northeast 84 97 2,123 Level FlightAware ADS-B
Mon 06:34:56 AM 46.2420 6.1140 44° Northeast 2,760 Level FlightAware ADS-B
Mon 06:35:21 AM 46.2580 6.1370 45° Northeast 182 209 2,300 3,927 Climbing FlightAware ADS-B
Mon 06:35:51 AM 46.2760 6.1650 47° Northeast 196 226 3,600 2,500 Climbing FlightAware ADS-B
Mon 06:36:21 AM 46.2960 6.1950 46° Northeast 209 241 4,800 1,964 Climbing FlightAware ADS-B
Mon 06:36:46 AM 46.3140 6.2230 47° Northeast 237 273 5,400 1,745 Climbing FlightAware ADS-B
Mon 06:37:16 AM 46.3350 6.2540 46° Northeast 258 297 6,400 2,800 Climbing FlightAware ADS-B
Mon 06:37:46 AM 46.3640 6.2970 46° Northeast 265 305 8,200 3,273 Climbing FlightAware ADS-B
Mon 06:38:11 AM 46.3890 6.3240 37° Northeast 270 311 9,400 2,700 Climbing FlightAware ADS-B
Mon 06:38:26 AM 46.4050 6.3270 North 273 314 10,000 1,855 Climbing FlightAware ADS-B
Mon 06:39:06 AM 46.4600 6.3210 356° North 305 351 11,100 1,457 Climbing FlightAware ADS-B
Mon 06:39:36 AM 46.5020 6.2840 329° Northwest 349 402 11,700 1,440 Climbing FlightAware ADS-B
Mon 06:40:21 AM 46.5410 6.1930 302° West 382 440 12,900 2,250 Climbing FlightAware ADS-B
Mon 06:40:56 AM 46.5750 6.1070 300° West 386 444 14,700 2,625 Climbing FlightAware ADS-B
Mon 06:41:41 AM 46.6150 6.0080 300° West 392 451 16,400 1,957 Climbing FlightAware ADS-B
Mon 06:42:28 AM 46.6530 5.9150 301° West 408 470 17,700 1,929 Climbing FlightAware ADS-B
Mon 06:43:05 AM 46.6930 5.8180 301° West 416 479 19,100 2,147 Climbing FlightAware ADS-B
Mon 06:44:03 AM 46.7560 5.6960 307° West 415 478 21,100 2,041 Climbing FlightAware ADS-B
Mon 06:44:42 AM 46.8170 5.6230 321° Northwest 416 479 22,400 1,952 Climbing FlightAware ADS-B
Mon 06:45:26 AM 46.8830 5.5440 321° Northwest 419 482 23,800 1,705 Climbing FlightAware ADS-B
Mon 06:46:10 AM 46.9450 5.4700 321° Northwest 425 489 24,900 1,556 Climbing FlightAware ADS-B
Mon 06:46:47 AM 47.0070 5.3970 321° Northwest 430 495 25,900 1,446 Climbing FlightAware ADS-B
Mon 06:47:33 AM 47.0720 5.3170 320° Northwest 435 501 26,900 2,045 Climbing FlightAware ADS-B
Mon 06:48:15 AM 47.1370 5.2350 319° Northwest 417 480 28,900 2,612 Climbing FlightAware ADS-B
Mon 06:48:58 AM 47.1940 5.1640 320° Northwest 395 455 30,600 1,742 Climbing FlightAware ADS-B
Mon 06:49:48 AM 47.2680 5.0710 320° Northwest 396 456 31,600 848 Climbing FlightAware ADS-B
Mon 06:50:37 AM 47.3470 4.9730 320° Northwest 414 476 32,000 289 Climbing FlightAware ADS-B
Mon 06:51:11 AM 47.3980 4.9090 320° Northwest 418 481 32,000  Level FlightAware ADS-B
Mon 06:51:55 AM 47.4610 4.8290 319° Northwest 411 473 32,000  Level FlightAware ADS-B
Mon 06:52:37 AM 47.5220 4.7520 320° Northwest 411 473 32,000  Level FlightAware ADS-B
Mon 06:53:23 AM 47.5880 4.6690 320° Northwest 409 471 32,000  Level FlightAware ADS-B
Mon 06:54:05 AM 47.6480 4.5920 319° Northwest 409 471 32,000  Level FlightAware ADS-B
Mon 06:54:44 AM 47.7030 4.5210 319° Northwest 408 470 32,000  Level FlightAware ADS-B
Mon 06:55:29 AM 47.7690 4.4370 319° Northwest 407 468 32,000  Level FlightAware ADS-B
Mon 06:56:07 AM 47.8220 4.3680 319° Northwest 406 467 32,000  Level FlightAware ADS-B
Mon 06:56:55 AM 47.8910 4.2790 319° Northwest 406 467 32,000  Level FlightAware ADS-B
Mon 06:57:35 AM 47.9460 4.2090 320° Northwest 405 466 32,000  Level FlightAware ADS-B
Mon 06:58:19 AM 48.0090 4.1260 319° Northwest 406 467 32,000  Level FlightAware ADS-B
Mon 06:58:59 AM 48.0660 4.0510 319° Northwest 406 467 32,000  Level FlightAware ADS-B
Mon 06:59:39 AM 48.1220 3.9790 319° Northwest 406 467 32,000  Level FlightAware ADS-B
Mon 07:00:23 AM 48.1810 3.9020 319° Northwest 405 466 32,000  Level FlightAware ADS-B
Mon 07:01:03 AM 48.2390 3.8250 319° Northwest 404 465 32,000  Level FlightAware ADS-B
Mon 07:01:45 AM 48.2960 3.7500 319° Northwest 403 464 32,000  Level FlightAware ADS-B
Mon 07:02:26 AM 48.3530 3.6740 318° Northwest 396 456 32,000  Level FlightAware ADS-B
Mon 07:03:11 AM 48.4170 3.5900 319° Northwest 397 457 32,000  Level FlightAware ADS-B
Mon 07:03:51 AM 48.4730 3.5150 318° Northwest 397 457 32,000  Level FlightAware ADS-B
Mon 07:04:37 AM 48.5350 3.4320 318° Northwest 396 456 32,000  Level FlightAware ADS-B
Mon 07:05:17 AM 48.5920 3.3560 319° Northwest 394 453 32,000  Level FlightAware ADS-B
Mon 07:05:58 AM 48.6470 3.2840 319° Northwest 400 460 32,000  Level FlightAware ADS-B
Mon 07:06:38 AM 48.7120 3.2250 329° Northwest 394 453 32,000  Level FlightAware ADS-B
Mon 07:07:20 AM 48.7810 3.1770 335° Northwest 394 453 32,000  Level FlightAware ADS-B
Mon 07:08:05 AM 48.8590 3.1230 336° Northwest 395 455 32,000  Level FlightAware ADS-B
Mon 07:08:46 AM 48.9260 3.0760 335° Northwest 395 455 32,000  Level FlightAware ADS-B
Mon 07:09:30 AM 49.0020 3.0220 335° Northwest 395 455 32,000  Level FlightAware ADS-B
Mon 07:10:11 AM 49.0700 2.9740 335° Northwest 394 453 32,000  Level FlightAware ADS-B
Mon 07:10:53 AM 49.1430 2.9230 335° Northwest 394 453 32,000  Level FlightAware ADS-B
Mon 07:11:36 AM 49.2140 2.8720 335° Northwest 394 453 32,000  Level FlightAware ADS-B
Mon 07:12:12 AM 49.2780 2.8270 335° Northwest 400 460 32,000  Level FlightAware ADS-B
Mon 07:12:54 AM 49.3480 2.7760 335° Northwest 400 460 32,000  Level FlightAware ADS-B
Mon 07:13:01 AM 49.3614 2.7662 335° Northwest 1 1 32,000  Level FlightAware UK
Mon 07:13:38 AM 49.4230 2.7230 335° Northwest 401 461 32,000  Level FlightAware ADS-B
Mon 07:14:24 AM 49.5000 2.6680 335° Northwest 403 464 32,000  Level FlightAware ADS-B
Mon 07:15:08 AM 49.5750 2.6130 335° Northwest 403 464 32,000  Level FlightAware ADS-B
Mon 07:15:48 AM 49.6400 2.5670 335° Northwest 406 467 32,000  Level FlightAware ADS-B
Mon 07:16:30 AM 49.7120 2.5140 335° Northwest 409 471 32,000  Level FlightAware ADS-B
Mon 07:17:12 AM 49.7860 2.4600 335° Northwest 409 471 32,000  Level FlightAware ADS-B
Mon 07:17:54 AM 49.8560 2.4090 335° Northwest 410 472 32,000  Level FlightAware ADS-B
Mon 07:18:32 AM 49.9220 2.3610 335° Northwest 411 473 32,000  Level FlightAware ADS-B
Mon 07:19:13 AM 49.9920 2.3090 334° Northwest 412 474 32,000  Level FlightAware ADS-B
Mon 07:20:02 AM 50.0780 2.2450 334° Northwest 413 475 32,000  Level FlightAware ADS-B
Mon 07:20:42 AM 50.1460 2.1950 335° Northwest 414 476 32,000  Level FlightAware ADS-B
Mon 07:21:13 AM 50.1994 2.1558 335° Northwest 474 545 32,000  Level FlightAware UK
Mon 07:21:24 AM 50.2190 2.1410 335° Northwest 416 479 32,000  Level FlightAware ADS-B
Mon 07:21:55 AM 50.2726 2.1016 335° Northwest 474 545 32,000  Level FlightAware UK
Mon 07:22:08 AM 50.2950 2.0840 335° Northwest 416 479 32,000  Level FlightAware ADS-B
Mon 07:22:44 AM 50.3580 2.0350 334° Northwest 414 476 32,000  Level FlightAware ADS-B
Mon 07:23:26 AM 50.4190 1.9570 321° Northwest 412 474 32,000  Level FlightAware ADS-B
Mon 07:24:12 AM 50.4780 1.8690 317° Northwest 412 474 32,000  Level FlightAware ADS-B
Mon 07:24:50 AM 50.5350 1.7890 317° Northwest 414 476 32,000 -140 Level FlightAware ADS-B
Mon 07:24:55 AM 50.5448 1.7807 317° Northwest 474 545 31,900 -146 Descending FlightAware UK
Mon 07:25:31 AM 50.6033 1.7245 317° Northwest 470 541 31,900 140 Level FlightAware UK
Mon 07:25:38 AM 50.6100 1.7170 317° Northwest 414 476 32,000 143 Climbing FlightAware ADS-B
Mon 07:26:13 AM 50.6721 1.6573 317° Northwest 470 541 32,000  Level FlightAware UK
Mon 07:26:15 AM 50.6700 1.6590 317° Northwest 414 476 32,000  Level FlightAware ADS-B
Mon 07:26:55 AM 50.7404 1.5901 317° Northwest 470 541 32,000  Level FlightAware UK
Mon 07:27:11 AM 50.7660 1.5640 317° Northwest 415 478 32,000  Level FlightAware ADS-B
Mon 07:27:29 AM 50.7962 1.5340 328° Northwest 416 479 32,000  Level FlightAware ADS-B
Mon 07:28:13 AM 50.8640 1.4571 328° Northwest 470 541 32,000  Level FlightAware UK
Mon 07:28:21 AM 50.8761 1.4409 328° Northwest 415 478 32,000  Level FlightAware ADS-B
Mon 07:28:57 AM 50.9296 1.3721 321° Northwest 416 479 32,000  Level FlightAware ADS-B
Mon 07:29:33 AM 50.9829 1.3023 321° Northwest 416 479 32,000  Level FlightAware ADS-B
Mon 07:30:22 AM 51.0559 1.2057 320° Northwest 417 480 32,000  Level FlightAware ADS-B
Mon 07:31:00 AM 51.1129 1.1303 320° Northwest 419 482 32,000  Level FlightAware ADS-B
Mon 07:31:38 AM 51.1680 1.0574 320° Northwest 420 483 32,000 176 Level FlightAware ADS-B
Mon 07:32:08 AM 51.2136 0.9968 320° Northwest 422 486 32,200 1,031 Climbing FlightAware ADS-B
Mon 07:32:42 AM 51.2641 0.9297 320° Northwest 417 480 33,100 1,273 Climbing FlightAware ADS-B
Mon 07:33:14 AM 51.3111 0.8669 320° Northwest 418 481 33,600 871 Climbing FlightAware ADS-B
Mon 07:33:44 AM 51.3559 0.8068 320° Northwest 419 482 34,000 400 Climbing FlightAware ADS-B
Mon 07:34:14 AM 51.4010 0.7463 320° Northwest 420 483 34,000  Level FlightAware ADS-B
Mon 07:34:45 AM 51.4457 0.6860 320° Northwest 422 486 34,000  Level FlightAware ADS-B
Mon 07:35:15 AM 51.4904 0.6256 320° Northwest 422 486 34,000  Level FlightAware ADS-B
Mon 07:35:45 AM 51.5355 0.5648 320° Northwest 421 484 34,000  Level FlightAware ADS-B
Mon 07:36:18 AM 51.5839 0.4990 320° Northwest 419 482 34,000  Level FlightAware ADS-B
Mon 07:36:48 AM 51.6280 0.4388 320° Northwest 418 481 34,000  Level FlightAware ADS-B
Mon 07:37:18 AM 51.6726 0.3782 320° Northwest 418 481 34,000  Level FlightAware ADS-B
Mon 07:37:49 AM 51.7178 0.3164 320° Northwest 418 481 34,000  Level FlightAware ADS-B
Mon 07:38:20 AM 51.7635 0.2533 319° Northwest 418 481 34,000  Level FlightAware ADS-B
Mon 07:38:51 AM 51.8086 0.1919 320° Northwest 418 481 34,000  Level FlightAware ADS-B
Mon 07:39:21 AM 51.8532 0.1298 319° Northwest 418 481 34,000  Level FlightAware ADS-B
Mon 07:39:53 AM 51.9003 0.0645 319° Northwest 417 480 34,000  Level FlightAware ADS-B
Mon 07:40:26 AM 51.9480 -0.0011 320° Northwest 418 481 34,000  Level FlightAware ADS-B
Mon 07:41:00 AM 51.9995 -0.0702 320° Northwest 417 480 34,000  Level FlightAware ADS-B
Mon 07:41:31 AM 52.0483 -0.1261 325° Northwest 417 480 34,000  Level FlightAware ADS-B
Mon 07:42:04 AM 52.0994 -0.1846 325° Northwest 419 482 34,000  Level FlightAware ADS-B
Mon 07:42:34 AM 52.1474 -0.2390 325° Northwest 419 482 34,000  Level FlightAware ADS-B
Mon 07:43:06 AM 52.1968 -0.2959 325° Northwest 418 481 34,000  Level FlightAware ADS-B
Mon 07:43:36 AM 52.2445 -0.3503 325° Northwest 418 481 34,000  Level FlightAware ADS-B
Mon 07:44:06 AM 52.2921 -0.4045 325° Northwest 417 480 34,000  Level FlightAware ADS-B
Mon 07:44:37 AM 52.3407 -0.4601 325° Northwest 416 479 34,000  Level FlightAware ADS-B
Mon 07:45:02 AM 52.3796 -0.5044 325° Northwest 415 478 34,000  Level FlightAware ADS-B
Mon 07:45:15 AM 52.3995 -0.5307 321° Northwest 414 476 34,000  Level FlightAware ADS-B
Mon 07:45:45 AM 52.4434 -0.5929 319° Northwest 414 476 34,000  Level FlightAware ADS-B
Mon 07:46:25 AM 52.5009 -0.6724 320° Northwest 415 478 34,000  Level FlightAware ADS-B
Mon 07:46:55 AM 52.5462 -0.7339 320° Northwest 415 478 34,000  Level FlightAware ADS-B
Mon 07:47:26 AM 52.5913 -0.7945 321° Northwest 416 479 34,000  Level FlightAware ADS-B
Mon 07:47:56 AM 52.6361 -0.8547 321° Northwest 416 479 34,000  Level FlightAware ADS-B
Mon 07:48:29 AM 52.6849 -0.9206 321° Northwest 415 478 34,000 -80 Level FlightAware ADS-B
Mon 07:49:11 AM 52.7478 -1.0060 321° Northwest 460 529 33,900  Descending FlightAware UK
Mon 07:49:15 AM 52.7500 -1.0100 321° Northwest 416 479 34,000 136 Climbing FlightAware ADS-B
Mon 07:49:55 AM 52.8090 -1.0900 321° Northwest 418 481 34,000 -136 Level FlightAware ADS-B
Mon 07:49:59 AM 52.8185 -1.1029 321° Northwest 462 532 33,900  Descending FlightAware UK
Mon 07:50:41 AM 52.8810 -1.1890 320° Northwest 419 482 34,000 73 Climbing FlightAware ADS-B
Mon 07:51:21 AM 52.9400 -1.2710 320° Northwest 420 483 34,000  Level FlightAware ADS-B
Mon 07:51:23 AM 52.9431 -1.2751 320° Northwest 466 536 34,000  Level FlightAware UK
Mon 07:51:59 AM 52.9967 -1.3493 320° Northwest 468 539 34,000  Level FlightAware UK
Mon 07:52:03 AM 53.0010 -1.3550 320° Northwest 420 483 34,000  Level FlightAware ADS-B
Mon 07:52:47 AM 53.0680 -1.4480 320° Northwest 421 484 34,000 -75 Level FlightAware ADS-B
Mon 07:53:23 AM 53.1214 -1.5232 320° Northwest 466 536 33,900  Descending FlightAware UK
Mon 07:53:29 AM 53.1300 -1.5350 320° Northwest 420 483 34,000 128 Climbing FlightAware ADS-B
Mon 07:54:10 AM 53.1900 -1.6200 320° Northwest 421 484 34,000 -83 Level FlightAware ADS-B
Mon 07:54:41 AM 53.2342 -1.6913 320° Northwest 466 536 33,900  Descending FlightAware UK
Mon 07:54:51 AM 53.2440 -1.7120 320° Northwest 419 482 34,000 120 Climbing FlightAware ADS-B
Mon 07:55:31 AM 53.2860 -1.8200 303° West 420 483 34,000  Level FlightAware ADS-B
Mon 07:56:18 AM 53.3330 -1.9530 301° West 422 486 34,000  Level FlightAware ADS-B
Mon 07:56:58 AM 53.3741 -2.0718 301° West 470 541 34,000  Level FlightAware UK
Mon 07:57:01 AM 53.3760 -2.0780 301° West 421 484 34,000  Level FlightAware ADS-B
Mon 07:57:34 AM 53.4088 -2.1730 301° West 472 543 34,000  Level FlightAware UK
Mon 07:57:39 AM 53.4100 -2.1780 301° West 423 487 34,000  Level FlightAware ADS-B
Mon 07:58:23 AM 53.4530 -2.3020 300° West 422 486 34,000  Level FlightAware ADS-B
Mon 07:59:04 AM 53.4920 -2.4160 300° West 422 486 34,000  Level FlightAware ADS-B
Mon 07:59:48 AM 53.5350 -2.5420 300° West 422 486 34,000  Level FlightAware ADS-B
Mon 08:00:27 AM 53.5730 -2.6530 300° West 420 483 34,000  Level FlightAware ADS-B
Mon 08:00:58 AM 53.6057 -2.7507 300° West 474 545 34,000  Level FlightAware UK
Mon 08:01:13 AM 53.6200 -2.7920 300° West 420 483 34,000  Level FlightAware ADS-B
Mon 08:01:54 AM 53.6570 -2.9030 299° West 419 482 34,000  Level FlightAware ADS-B
Mon 08:02:31 AM 53.6910 -3.0050 299° West 417 480 34,000  Level FlightAware ADS-B
Mon 08:03:15 AM 53.7340 -3.1330 299° West 416 479 34,000  Level FlightAware ADS-B
Mon 08:03:16 AM 53.7365 -3.1414 299° West 470 541 34,000  Level FlightAware UK
Mon 08:03:56 AM 53.7720 -3.2500 299° West 415 478 34,000  Level FlightAware ADS-B
Mon 08:03:58 AM 53.7757 -3.2601 299° West 470 541 34,000  Level FlightAware UK
Mon 08:04:36 AM 53.8140 -3.3560 304° West 415 478 34,000  Level FlightAware ADS-B
Mon 08:05:22 AM 53.8740 -3.4690 312° West 415 478 34,000  Level FlightAware ADS-B
Mon 08:06:02 AM 53.9260 -3.5640 313° West 416 479 34,000  Level FlightAware ADS-B
Mon 08:06:41 AM 53.9770 -3.6590 312° West 413 475 34,000  Level FlightAware ADS-B
Mon 08:07:28 AM 54.0360 -3.7680 313° West 414 476 34,000  Level FlightAware ADS-B
Mon 08:08:12 AM 54.0930 -3.8740 313° West 414 476 34,000 -78 Level FlightAware ADS-B
Mon 08:08:45 AM 54.1391 -3.9588 313° West 470 541 33,900  Descending FlightAware UK
Mon 08:08:51 AM 54.1420 -3.9650 313° West 414 476 34,000 118 Climbing FlightAware ADS-B
Mon 08:09:36 AM 54.2020 -4.0770 313° West 414 476 34,000  Level FlightAware ADS-B
Mon 08:10:19 AM 54.2560 -4.1780 312° West 414 476 34,000  Level FlightAware ADS-B
Mon 08:10:57 AM 54.3070 -4.2720 313° West 414 476 34,000  Level FlightAware ADS-B
Mon 08:11:31 AM 54.3380 -4.3320 312° West 415 478 34,000  Level FlightAware ADS-B
Mon 08:12:10 AM 54.4010 -4.4490 313° West 414 476 34,000  Level FlightAware ADS-B
Mon 08:12:59 AM 54.4650 -4.5730 312° West 414 476 34,000  Level FlightAware ADS-B
Mon 08:13:41 AM 54.5170 -4.6740 312° West 415 478 34,000 -79 Level FlightAware ADS-B
Mon 08:14:15 AM 54.5618 -4.7616 312° West 468 539 33,900  Descending FlightAware UK
Mon 08:14:23 AM 54.5710 -4.7790 312° West 415 478 34,000 125 Climbing FlightAware ADS-B
Mon 08:15:03 AM 54.6210 -4.8770 311° West 417 480 34,000  Level FlightAware ADS-B
Mon 08:15:43 AM 54.6720 -4.9780 311° West 418 481 34,000  Level FlightAware ADS-B
Mon 08:16:28 AM 54.7290 -5.0900 311° West 421 484 34,000  Level FlightAware ADS-B
Mon 08:17:13 AM 54.7860 -5.2040 311° West 424 488 34,000  Level FlightAware ADS-B
Mon 08:17:51 AM 54.8380 -5.3051 311° West 466 536 34,000  Level FlightAware UK
Mon 08:17:53 AM 54.8390 -5.3060 311° West 429 494 34,000  Level FlightAware ADS-B
Mon 08:18:33 AM 54.9024 -5.3980 311° West 472 543 34,000  Level FlightAware UK
Mon 08:18:35 AM 54.9040 -5.4010 311° West 437 503 34,000  Level FlightAware ADS-B
Mon 08:19:15 AM 54.9680 -5.4870 322° Northwest 439 505 34,000  Level FlightAware ADS-B
Mon 08:19:52 AM 55.0170 -5.5540 322° Northwest 441 507 34,000  Level FlightAware ADS-B
Mon 08:20:40 AM 55.1030 -5.6680 323° Northwest 443 510 34,000  Level FlightAware ADS-B
Mon 08:21:21 AM 55.1719 -5.7619 323° Northwest 476 548 34,000  Level FlightAware UK
Mon 08:21:21 AM 55.1650 -5.7530 323° Northwest 443 510 34,000  Level FlightAware ADS-B
Mon 08:21:57 AM 55.2300 -5.8410 323° Northwest 474 545 34,000  Level FlightAware UK
Mon 08:22:05 AM 55.2390 -5.8540 323° Northwest 444 511 34,000  Level FlightAware ADS-B
Mon 08:22:35 AM 55.2860 -5.9180 322° Northwest 445 512 34,000  Level FlightAware ADS-B
Mon 08:23:15 AM 55.3530 -6.0090 322° Northwest 445 512 34,000  Level FlightAware ADS-B
Mon 08:23:55 AM 55.4170 -6.0970 322° Northwest 445 512 34,000  Level FlightAware ADS-B
Mon 08:23:57 AM 55.4243 -6.1070 322° Northwest 484 557 34,000  Level FlightAware UK
Mon 08:24:27 AM 55.4728 -6.1739 322° Northwest 482 555 34,000  Level FlightAware UK
Mon 08:24:40 AM 55.4870 -6.1940 322° Northwest 444 511 34,000  Level FlightAware ADS-B
Mon 08:25:21 AM 55.5520 -6.2850 322° Northwest 442 509 34,000  Level FlightAware ADS-B
Mon 08:26:00 AM 55.6160 -6.3730 322° Northwest 441 507 34,000  Level FlightAware ADS-B
Mon 08:26:40 AM 55.6740 -6.4550 321° Northwest 441 507 34,000  Level FlightAware ADS-B
Mon 08:27:25 AM 55.7530 -6.5650 322° Northwest 439 505 34,000  Level FlightAware ADS-B
Mon 08:28:05 AM 55.8150 -6.6530 322° Northwest 437 503 34,000  Level FlightAware ADS-B
Mon 08:28:09 AM 55.8260 -6.6692 322° Northwest 474 545 34,000 -176 Level FlightAware UK
Mon 08:28:39 AM 55.8732 -6.7359 322° Northwest 472 543 33,900  Descending FlightAware UK
Mon 08:28:45 AM 55.8790 -6.7430 322° Northwest 435 501 34,000 158 Climbing FlightAware ADS-B
Mon 08:29:17 AM 55.9300 -6.8170 321° Northwest 434 499 34,000  Level FlightAware ADS-B
Mon 08:30:02 AM 56.0000 -6.9170 321° Northwest 434 499 34,000  Level FlightAware ADS-B
Mon 08:30:39 AM 56.0606 -7.0039 321° Northwest 468 539 34,000  Level FlightAware UK
Mon 08:30:47 AM 56.0710 -7.0190 321° Northwest 434 499 34,000  Level FlightAware ADS-B
Mon 08:31:27 AM 56.1330 -7.1090 321° Northwest 435 501 34,000  Level FlightAware ADS-B
Mon 08:32:09 AM 56.2010 -7.2072 321° Northwest 466 536 34,000  Level FlightAware UK
Mon 08:32:17 AM 56.2110 -7.2220 321° Northwest 436 502 34,000  Level FlightAware ADS-B
Mon 08:33:02 AM 56.2820 -7.3260 321° Northwest 438 504 34,000  Level FlightAware ADS-B
Mon 08:33:39 AM 56.3422 -7.4135 321° Northwest 466 536 34,000  Level FlightAware UK
Mon 08:33:43 AM 56.3470 -7.4200 321° Northwest 441 507 34,000 122 Level FlightAware ADS-B
Mon 08:34:28 AM 56.4160 -7.5230 320° Northwest 437 503 34,100 733 Climbing FlightAware ADS-B
Mon 08:35:13 AM 56.4890 -7.6300 320° Northwest 436 502 35,100 1,435 Climbing FlightAware ADS-B
Mon 08:35:14 AM 56.4938 -7.6369 320° Northwest 470 541 35,200 857 Climbing FlightAware UK
Mon 08:35:48 AM 56.5430 -7.7100 320° Northwest 434 499 35,600 833 Climbing FlightAware ADS-B
Mon 08:35:50 AM 56.5492 -7.7195 320° Northwest 472 543 35,700 750 Climbing FlightAware UK
Mon 08:36:20 AM 56.5956 -7.7890 320° Northwest 468 539 36,000 429 Climbing FlightAware UK
Mon 08:36:32 AM 56.6120 -7.8140 320° Northwest 437 503 36,000  Level FlightAware ADS-B
Mon 08:37:12 AM 56.6660 -7.8950 321° Northwest 437 503 36,000  Level FlightAware ADS-B
Mon 08:37:50 AM 56.7355 -7.9988 321° Northwest 470 541 36,000  Level FlightAware UK
Mon 08:37:58 AM 56.7440 -8.0120 321° Northwest 429 494 36,000  Level FlightAware ADS-B
Mon 08:38:43 AM 56.8150 -8.1190 320° Northwest 427 491 36,000  Level FlightAware ADS-B
Mon 08:39:18 AM 56.8670 -8.1990 320° Northwest 427 491 36,000  Level FlightAware ADS-B
Mon 08:39:20 AM 56.8740 -8.2091 320° Northwest 468 539 36,000  Level FlightAware UK
Mon 08:39:50 AM 56.9199 -8.2792 320° Northwest 468 539 36,000  Level FlightAware UK
Mon 08:40:03 AM 56.9370 -8.3050 320° Northwest 426 490 36,000  Level FlightAware ADS-B
Mon 08:40:48 AM 57.0050 -8.4100 320° Northwest 425 489 36,000  Level FlightAware ADS-B
Mon 08:41:26 AM 57.0630 -8.5000 320° Northwest 426 490 36,000  Level FlightAware ADS-B
Mon 08:42:12 AM 57.1330 -8.6080 320° Northwest 425 489 36,000  Level FlightAware ADS-B
Mon 08:42:44 AM 57.1849 -8.6884 320° Northwest 468 539 36,000  Level FlightAware UK
Mon 08:42:51 AM 57.1940 -8.7030 320° Northwest 426 490 36,000  Level FlightAware ADS-B
Mon 08:43:36 AM 57.2620 -8.8090 320° Northwest 426 490 36,000  Level FlightAware ADS-B
Mon 08:44:14 AM 57.3217 -8.9031 320° Northwest 468 539 36,000  Level FlightAware UK
Mon 08:44:16 AM 57.3230 -8.9050 320° Northwest 427 491 36,000  Level FlightAware ADS-B
Mon 08:44:50 AM 57.3762 -8.9891 320° Northwest 468 539 36,000  Level FlightAware UK
Mon 08:44:57 AM 57.3840 -9.0020 320° Northwest 428 493 36,000  Level FlightAware ADS-B
Mon 08:45:42 AM 57.4510 -9.1090 319° Northwest 430 495 36,000  Level FlightAware ADS-B
Mon 08:46:21 AM 57.5130 -9.2070 320° Northwest 431 496 36,000  Level FlightAware ADS-B
Mon 08:47:06 AM 57.5820 -9.3170 320° Northwest 432 497 36,000  Level FlightAware ADS-B
Mon 08:48:19 AM 57.6860 -9.4870 319° Northwest 432 497 36,000  Level FlightAware ADS-B
Mon 08:48:57 AM 57.7450 -9.5810 320° Northwest 434 499 36,000  Level FlightAware ADS-B
Mon 08:49:37 AM 57.8130 -9.6920 319° Northwest 433 498 36,000  Level FlightAware ADS-B
Mon 08:50:47 AM 57.9170 -9.8630 319° Northwest 435 501 36,000  Level FlightAware ADS-B
Mon 08:51:22 AM 57.9730 -9.9550 319° Northwest 434 499 36,000  Level FlightAware ADS-B
Mon 08:52:17 AM 58.0300 -10.1020 306° West 438 504 36,000  Level FlightAware ADS-B
Mon 08:52:59 AM 58.0690 -10.2170 303° West 438 504 36,000  Level FlightAware ADS-B
Mon 08:53:44 AM 58.1110 -10.3400 303° West 438 504 36,000  Level FlightAware ADS-B
Mon 08:54:30 AM 58.1550 -10.4660 304° West 438 504 36,000  Level FlightAware ADS-B
Mon 08:55:52 AM 58.2150 -10.8710 286° West 434 499 36,000  Level FlightAware ADS-B
Mon 08:56:22 AM 58.2400 -10.9730 295° West 433 498 36,000  Level FlightAware ADS-B
Mon 08:57:22 AM 58.2920 -11.1870 295° West 430 495 36,000  Level FlightAware ADS-B
Mon 08:58:02 AM 58.3240 -11.3240 294° West 433 498 36,000  Level FlightAware ADS-B
Mon 08:59:02 AM 58.3740 -11.5360 294° West 434 499 36,000  Level FlightAware ADS-B
Mon 08:59:53 AM 58.4070 -11.6760 294° West 435 501 36,000  Level FlightAware ADS-B
Mon 09:00:25 AM 58.4290 -11.7710 294° West 435 501 36,000  Level FlightAware ADS-B
Mon 09:01:58 AM 58.5070 -12.1090 294° West 438 504 36,000  Level FlightAware ADS-B
Mon 09:02:40 AM 58.5350 -12.2370 293° West 438 504 36,000  Level FlightAware ADS-B
Mon 09:03:31 AM 58.5830 -12.4430 294° West 437 503 36,000  Level FlightAware ADS-B
Mon 09:04:18 AM 58.6130 -12.5870 292° West 437 503 36,000  Level FlightAware ADS-B
Mon 09:06:00 AM 58.6384 -12.9576 278° West  Level Estimated
Mon 09:06:06 AM 58.6830 -12.9170 278° West 437 503 36,000  Level FlightAware ADS-B
Mon 09:06:47 AM 58.7090 -13.0430 292° West 437 503 36,000  Level FlightAware ADS-B
Mon 09:07:44 AM 58.7460 -13.2180 292° West 437 503 36,000  Level FlightAware ADS-B
Mon 09:08:23 AM 58.7710 -13.3380 292° West 437 503 36,000  Level FlightAware ADS-B
Mon 09:08:46 AM 58.7860 -13.4090 292° West 437 503 36,000  Level FlightAware ADS-B
Mon 09:09:36 AM 58.8180 -13.5630 292° West 437 503 36,000  Level FlightAware ADS-B
Mon 09:10:14 AM 58.8420 -13.6800 292° West 437 503 36,000  Level FlightAware ADS-B
Mon 09:11:02 AM 58.8730 -13.8270 292° West 437 503 36,000  Level FlightAware ADS-B
Mon 09:11:43 AM 58.9000 -13.9540 292° West 437 503 36,000  Level FlightAware ADS-B
Mon 09:12:22 AM 58.9250 -14.0740 292° West 437 503 36,000  Level FlightAware ADS-B
Mon 09:13:01 AM 58.9500 -14.1950 292° West 437 503 36,000  Level FlightAware ADS-B
Mon 09:15:00 AM 58.9729 -14.6331 276° West  Level Estimated
Mon 09:16:00 AM 58.9838 -14.8542 276° West  Level Estimated
Mon 09:17:00 AM 58.9944 -15.0755 275° West  Level Estimated
Mon 09:18:00 AM 59.0046 -15.2969 275° West  Level Estimated
Mon 09:19:00 AM 59.0144 -15.5184 275° West  Level Estimated
Mon 09:20:00 AM 59.0239 -15.7400 275° West  Level Estimated
Mon 09:21:00 AM 59.0330 -15.9617 275° West  Level Estimated
Mon 09:22:00 AM 59.0416 -16.1836 274° West  Level Estimated
Mon 09:23:00 AM 59.0499 -16.4056 274° West  Level Estimated
Mon 09:24:00 AM 59.0579 -16.6277 274° West  Level Estimated
Mon 09:25:00 AM 59.0654 -16.8498 274° West  Level Estimated
Mon 09:26:00 AM 59.0726 -17.0721 274° West  Level Estimated
Mon 09:27:00 AM 59.0794 -17.2945 273° West  Level Estimated
Mon 09:28:00 AM 59.0858 -17.5170 273° West  Level Estimated
Mon 09:29:00 AM 59.0918 -17.7395 273° West  Level Estimated
Mon 09:30:00 AM 59.0975 -17.9621 273° West  Level Estimated
Mon 09:31:00 AM 59.1027 -18.1848 273° West  Level Estimated
Mon 09:32:00 AM 59.1076 -18.4075 273° West  Level Estimated
Mon 09:33:00 AM 59.1121 -18.6303 272° West  Level Estimated
Mon 09:34:00 AM 59.1163 -18.8532 272° West  Level Estimated
Mon 09:35:00 AM 59.1200 -19.0761 272° West  Level Estimated
Mon 09:36:00 AM 59.1234 -19.2991 272° West  Level Estimated
Mon 09:37:00 AM 59.1264 -19.5221 272° West  Level Estimated
Mon 09:38:00 AM 59.1290 -19.7451 271° West  Level Estimated
Mon 09:38:51 AM 60.0000 -20.0000 297° West 459 528 36,000  Level ETMS Enhanced Traffic Management System
Mon 09:39:00 AM 59.1312 -19.9682 271° West  Level Estimated
Mon 09:40:00 AM 59.1330 -20.1913 271° West  Level Estimated
Mon 09:41:00 AM 59.1344 -20.4139 271° West  Level Estimated
Mon 09:41:32 AM 60.2330 -20.9460 271° West 448 516 36,000  Level FlightAware ADS-B
Mon 09:42:14 AM 60.2650 -21.0840 295° West 448 516 36,000  Level FlightAware ADS-B
Mon 09:42:54 AM 60.3040 -21.2430 296° West 450 518 36,000  Level FlightAware ADS-B
Mon 09:43:53 AM 60.3610 -21.4800 295° West 453 521 36,000  Level FlightAware ADS-B
Mon 09:44:00 AM 60.3926 -21.6165 295° West 459 528 36,000  Level FlightAware Transoceanic
Mon 09:44:34 AM 60.3980 -21.6390 295° West 454 522 36,000  Level FlightAware ADS-B
Mon 09:45:20 AM 60.4390 -21.8150 295° West 455 524 36,000  Level FlightAware ADS-B
Mon 09:46:02 AM 60.4770 -21.9780 295° West 457 526 36,000  Level FlightAware ADS-B
Mon 09:46:58 AM 60.5210 -22.1750 294° West 456 525 36,000  Level FlightAware ADS-B
Mon 09:47:37 AM 60.5600 -22.3450 295° West 458 527 36,000  Level FlightAware ADS-B
Mon 09:48:20 AM 60.5980 -22.5130 295° West 459 528 36,000  Level FlightAware ADS-B
Mon 09:49:02 AM 60.6350 -22.6790 295° West 459 528 36,000  Level FlightAware ADS-B
Mon 09:49:43 AM 60.6710 -22.8390 295° West 460 529 36,000  Level FlightAware ADS-B
Mon 09:50:24 AM 60.7060 -22.9980 294° West 461 531 36,000  Level FlightAware ADS-B
Mon 09:51:06 AM 60.7430 -23.1680 294° West 462 532 36,000  Level FlightAware ADS-B
Mon 09:51:50 AM 60.7810 -23.3450 294° West 463 533 36,000  Level FlightAware ADS-B
Mon 09:52:30 AM 60.8150 -23.5030 294° West 464 534 36,000  Level FlightAware ADS-B
Mon 09:53:14 AM 60.8480 -23.6580 294° West 464 534 36,000  Level FlightAware ADS-B
Mon 09:53:57 AM 60.8900 -23.8540 294° West 467 537 36,000  Level FlightAware ADS-B
Mon 09:54:54 AM 60.9340 -24.0660 293° West 468 539 36,000  Level FlightAware ADS-B
Mon 09:55:30 AM 60.9600 -24.1920 293° West 468 539 36,000  Level FlightAware ADS-B
Mon 09:56:18 AM 60.9940 -24.3600 293° West 468 539 36,000  Level FlightAware ADS-B
Mon 09:56:51 AM 61.0360 -24.5630 293° West 471 542 36,000  Level FlightAware ADS-B
Mon 09:57:41 AM 61.0790 -24.7750 293° West 473 544 36,000  Level FlightAware ADS-B
Mon 09:58:23 AM 61.1140 -24.9500 293° West 473 544 36,000  Level FlightAware ADS-B
Mon 09:59:00 AM 60.0000 -20.0000 297° West 459 528 36,000  Level ETMS Enhanced Traffic Management System
Mon 09:59:03 AM 61.1480 -25.1190 293° West 474 545 36,000  Level FlightAware ADS-B
Mon 09:59:44 AM 61.1800 -25.2820 292° West 475 547 36,000  Level FlightAware ADS-B
Mon 10:00:28 AM 61.2120 -25.4470 292° West 475 547 36,000  Level FlightAware ADS-B
Mon 10:01:10 AM 61.2520 -25.6520 292° West 476 548 36,000  Level FlightAware ADS-B
Mon 10:01:49 AM 61.2810 -25.8030 292° West 477 549 36,000  Level FlightAware ADS-B
Mon 10:02:33 AM 61.3190 -26.0040 292° West 477 549 36,000  Level FlightAware ADS-B
Mon 10:03:17 AM 61.3490 -26.1650 291° West 478 550 36,000  Level FlightAware ADS-B
Mon 10:03:52 AM 61.3720 -26.2930 291° West 478 550 36,000  Level FlightAware ADS-B
Mon 10:04:40 AM 61.4200 -26.5460 297° West 478 550 36,000  Level FlightAware ADS-B
Mon 10:05:22 AM 61.4530 -26.7270 291° West 478 550 36,000  Level FlightAware ADS-B
Mon 10:06:02 AM 61.4840 -26.9000 291° West 478 550 36,000  Level FlightAware ADS-B
Mon 10:06:49 AM 61.5150 -27.0720 291° West 477 549 36,000  Level FlightAware ADS-B
Mon 10:07:23 AM 61.5370 -27.1980 290° West 477 549 36,000  Level FlightAware ADS-B
Mon 10:08:24 AM 61.5760 -27.4240 290° West 477 549 36,000  Level FlightAware ADS-B
Mon 10:09:00 AM 61.5990 -27.5570 290° West 477 549 36,000  Level FlightAware ADS-B
Mon 10:09:46 AM 61.6280 -27.7280 290° West 477 549 36,000  Level FlightAware ADS-B
Mon 10:10:29 AM 61.6870 -28.0590 291° West 476 548 36,000  Level FlightAware ADS-B
Mon 10:11:37 AM 61.7370 -28.3550 290° West 477 549 36,000  Level FlightAware ADS-B
Mon 10:12:18 AM 61.7660 -28.5250 290° West 476 548 36,000  Level FlightAware ADS-B
Mon 10:12:59 AM 61.7960 -28.7130 289° West 476 548 36,000  Level FlightAware ADS-B
Mon 10:13:35 AM 61.8190 -28.8550 289° West 476 548 36,000  Level FlightAware ADS-B
Mon 10:14:24 AM 61.8570 -29.0840 289° West 477 549 36,000  Level FlightAware ADS-B
Mon 10:15:02 AM 61.8790 -29.2280 288° West 477 549 36,000  Level FlightAware ADS-B
Mon 10:15:54 AM 61.9090 -29.4250 288° West 477 549 36,000  Level FlightAware ADS-B
Mon 10:16:43 AM 61.9530 -29.6970 289° West 479 551 36,000  Level FlightAware ADS-B
Mon 10:17:23 AM 61.9770 -29.8490 289° West 479 551 36,000  Level FlightAware ADS-B
Mon 10:18:11 AM 62.0040 -30.0320 288° West 479 551 36,000  Level FlightAware ADS-B
Mon 10:18:47 AM 62.0250 -30.1700 288° West 479 551 36,000  Level FlightAware ADS-B
Mon 10:19:24 AM 62.0470 -30.3110 288° West 479 551 36,000  Level FlightAware ADS-B
Mon 10:20:12 AM 62.0750 -30.4950 288° West 479 551 36,000  Level FlightAware ADS-B
Mon 10:20:49 AM 62.0960 -30.6360 288° West 479 551 36,000  Level FlightAware ADS-B
Mon 10:21:30 AM 62.0000 -30.0000 274° West 469 540 36,000  Level ETMS Enhanced Traffic Management System
Mon 10:21:36 AM 62.1240 -30.8160 288° West 479 551 36,000  Level FlightAware ADS-B
Mon 10:22:12 AM 62.1450 -30.9540 288° West 479 551 36,000  Level FlightAware ADS-B
Mon 10:22:59 AM 62.1720 -31.1350 288° West 479 551 36,000  Level FlightAware ADS-B
Mon 10:23:37 AM 62.1940 -31.2800 288° West 479 551 36,000  Level FlightAware ADS-B
Mon 10:24:26 AM 62.2230 -31.4690 288° West 479 551 36,000  Level FlightAware ADS-B
Mon 10:25:00 AM 62.2420 -31.6000 287° West 479 551 36,000  Level FlightAware ADS-B
Mon 10:25:49 AM 62.2710 -31.7880 288° West 479 551 36,000  Level FlightAware ADS-B
Mon 10:26:25 AM 62.2920 -31.9270 274° West 479 551 36,000  Level FlightAware ADS-B
Mon 10:29:00 AM 62.2060 -32.5723 254° West  Level Estimated
Mon 10:30:00 AM 62.1719 -32.8211 254° West  Level Estimated
Mon 10:31:00 AM 62.1374 -33.0694 254° West  Level Estimated
Mon 10:32:00 AM 62.1024 -33.3171 253° West  Level Estimated
Mon 10:33:00 AM 62.0670 -33.5642 253° West  Level Estimated
Mon 10:34:00 AM 62.0311 -33.8107 253° West  Level Estimated
Mon 10:35:00 AM 61.9948 -34.0566 253° West  Level Estimated
Mon 10:36:00 AM 61.9581 -34.3020 252° West  Level Estimated
Mon 10:37:00 AM 61.9209 -34.5467 252° West  Level Estimated
Mon 10:38:00 AM 61.8833 -34.7909 252° West  Level Estimated
Mon 10:39:00 AM 61.8453 -35.0345 252° West  Level Estimated
Mon 10:40:00 AM 61.8068 -35.2774 252° West  Level Estimated
Mon 10:41:00 AM 61.7679 -35.5197 251° West  Level Estimated
Mon 10:41:42 AM 62.0833 -36.5500 250° West 490 564 36,000  Level Gander Center
Mon 10:42:00 AM 61.7286 -35.7615 251° West  Level Estimated
Mon 10:42:42 AM 62.0833 -36.8167 270° West 490 564 36,000  Level Gander Center
Mon 10:43:00 AM 61.6889 -36.0026 251° West  Level Estimated
Mon 10:43:42 AM 62.0667 -37.1333 264° West 490 564 36,000  Level Gander Center
Mon 10:44:00 AM 61.6487 -36.2430 251° West  Level Estimated
Mon 10:44:42 AM 62.0667 -37.4000 270° West 490 564 36,000  Level Gander Center
Mon 10:45:00 AM 61.6081 -36.4829 251° West  Level Estimated
Mon 10:45:42 AM 62.0667 -37.7000 270° West 490 564 36,000  Level Gander Center
Mon 10:46:00 AM 61.5671 -36.7221 250° West  Level Estimated
Mon 10:46:42 AM 62.0500 -37.9667 263° West 490 564 36,000  Level Gander Center
Mon 10:47:00 AM 61.5257 -36.9607 250° West  Level Estimated
Mon 10:47:42 AM 62.0500 -38.2667 270° West 490 564 36,000  Level Gander Center
Mon 10:48:42 AM 62.0333 -38.5167 262° West 490 564 36,000  Level Gander Center
Mon 10:49:42 AM 62.0333 -38.8167 270° West 490 564 36,000  Level Gander Center
Mon 10:50:42 AM 62.0333 -39.0833 270° West 490 564 36,000  Level Gander Center
Mon 10:51:42 AM 62.0167 -39.3833 263° West 490 564 36,000  Level Gander Center
Mon 10:52:42 AM 62.0167 -39.6500 270° West 490 564 36,000  Level Gander Center
Mon 10:53:42 AM 62.0000 -39.9500 263° West 490 564 36,000  Level Gander Center
Mon 10:54:42 AM 61.9833 -40.2333 263° West 480 552 36,000  Level Gander Center
Mon 10:55:00 AM 62.0000 -40.0000 263° West 473 544 36,000  Level ETMS Enhanced Traffic Management System
Mon 10:55:42 AM 61.9667 -40.5000 263° West 480 552 36,000  Level Gander Center
Mon 10:56:42 AM 61.9500 -40.8000 263° West 480 552 36,000  Level Gander Center
Mon 10:57:42 AM 61.9333 -41.0667 263° West 480 552 36,000  Level Gander Center
Mon 10:58:42 AM 61.9000 -41.3333 255° West 490 564 36,000  Level Gander Center
Mon 10:59:42 AM 61.8833 -41.6333 263° West 480 552 36,000  Level Gander Center
Mon 11:00:42 AM 61.8667 -41.9167 263° West 490 564 36,000  Level Gander Center
Mon 11:01:42 AM 61.8500 -42.1667 262° West 490 564 36,000  Level Gander Center
Mon 11:02:42 AM 61.8167 -42.4833 258° West 490 564 36,000  Level Gander Center
Mon 11:03:42 AM 61.8000 -42.7500 263° West 490 564 36,000  Level Gander Center
Mon 11:04:42 AM 61.7667 -43.0167 255° West 490 564 36,000  Level Gander Center
Mon 11:05:42 AM 61.7500 -43.3167 263° West 490 564 36,000  Level Gander Center
Mon 11:06:42 AM 61.7167 -43.5833 255° West 490 564 36,000  Level Gander Center
Mon 11:07:42 AM 61.7000 -43.8500 263° West 490 564 36,000  Level Gander Center
Mon 11:08:42 AM 61.6667 -44.1500 257° West 490 564 36,000  Level Gander Center
Mon 11:09:42 AM 61.6500 -44.4167 263° West 490 564 36,000  Level Gander Center
Mon 11:10:42 AM 61.6167 -44.6833 255° West 490 564 36,000  Level Gander Center
Mon 11:11:42 AM 61.6000 -44.9667 263° West 490 564 36,000  Level Gander Center
Mon 11:12:42 AM 61.5667 -45.2333 255° West 490 564 36,000  Level Gander Center
Mon 11:13:42 AM 61.5500 -45.5000 263° West 490 564 36,000  Level Gander Center
Mon 11:14:42 AM 61.5167 -45.8000 257° West 490 564 36,000  Level Gander Center
Mon 11:15:42 AM 61.4833 -46.0667 255° West 490 564 36,000  Level Gander Center
Mon 11:16:42 AM 61.4667 -46.3167 262° West 490 564 36,000  Level Gander Center
Mon 11:17:42 AM 61.4333 -46.6167 257° West 490 564 36,000  Level Gander Center
Mon 11:18:42 AM 61.4000 -46.8833 255° West 490 564 36,000  Level Gander Center
Mon 11:19:42 AM 61.3667 -47.1500 255° West 490 564 36,000  Level Gander Center
Mon 11:20:42 AM 61.3333 -47.4333 256° West 490 564 36,000  Level Gander Center
Mon 11:21:42 AM 61.3000 -47.7000 256° West 490 564 36,000  Level Gander Center
Mon 11:22:42 AM 61.2667 -48.0000 257° West 490 564 36,000  Level Gander Center
Mon 11:23:42 AM 61.2333 -48.2500 255° West 490 564 36,000  Level Gander Center
Mon 11:24:42 AM 61.2000 -48.5000 255° West 490 564 36,000  Level Gander Center
Mon 11:25:42 AM 61.1667 -48.7667 256° West 490 564 36,000  Level Gander Center
Mon 11:26:42 AM 61.1167 -49.0667 251° West 490 564 36,000  Level Gander Center
Mon 11:27:42 AM 61.0833 -49.3167 255° West 490 564 36,000  Level Gander Center
Mon 11:28:42 AM 61.0500 -49.5667 255° West 490 564 36,000  Level Gander Center
Mon 11:29:42 AM 61.0167 -49.8667 257° West 490 564 36,000  Level Gander Center
Mon 11:30:42 AM 60.9667 -50.1167 248° West 490 564 36,000  Level Gander Center
Mon 11:31:00 AM 61.0000 -50.0000 253° West 472 543 36,000  Level ETMS Enhanced Traffic Management System
Mon 11:31:42 AM 60.9500 -50.3667 253° West 480 552 36,000  Level Gander Center
Mon 11:32:42 AM 60.9000 -50.6333 249° West 480 552 36,000  Level Gander Center
Mon 11:33:42 AM 60.8500 -50.9167 250° West 480 552 36,000  Level Gander Center
Mon 11:34:42 AM 60.8167 -51.1667 255° West 480 552 36,000  Level Gander Center
Mon 11:35:42 AM 60.7667 -51.4167 248° West 480 552 36,000  Level Gander Center
Mon 11:36:42 AM 60.7333 -51.6667 255° West 480 552 36,000  Level Gander Center
Mon 11:37:42 AM 60.6833 -51.9333 249° West 480 552 36,000  Level Gander Center
Mon 11:38:46 AM 60.6333 -52.2167 250° West 480 552 36,000  Level Gander Center
Mon 11:39:46 AM 60.5833 -52.4667 248° West 480 552 36,000  Level Gander Center
Mon 11:40:46 AM 60.5500 -52.7167 255° West 480 552 36,000  Level Gander Center
Mon 11:41:46 AM 60.5000 -53.0000 250° West 480 552 36,000  Level Gander Center
Mon 11:42:46 AM 60.4500 -53.2500 248° West 480 552 36,000  Level Gander Center
Mon 11:43:46 AM 60.4167 -53.5000 255° West 480 552 36,000  Level Gander Center
Mon 11:44:46 AM 60.3667 -53.7333 247° West 480 552 36,000  Level Gander Center
Mon 11:45:46 AM 60.3333 -53.9833 255° West 480 552 36,000  Level Gander Center
Mon 11:46:46 AM 60.2667 -54.2333 242° Southwest 480 552 36,000  Level Gander Center
Mon 11:47:46 AM 60.2167 -54.4833 248° West 480 552 36,000  Level Gander Center
Mon 11:48:46 AM 60.1833 -54.7167 254° West 480 552 36,000  Level Gander Center
Mon 11:49:46 AM 60.1167 -55.0000 245° Southwest 480 552 36,000  Level Gander Center
Mon 11:50:46 AM 60.0833 -55.2333 254° West 480 552 36,000  Level Gander Center
Mon 11:51:46 AM 60.0333 -55.4833 248° West 480 552 36,000  Level Gander Center
Mon 11:52:46 AM 59.9667 -55.7333 242° Southwest 480 552 36,000  Level Gander Center
Mon 11:53:46 AM 59.9333 -55.9667 254° West 480 552 36,000  Level Gander Center
Mon 11:54:46 AM 59.8667 -56.2000 240° Southwest 480 552 36,000  Level Gander Center
Mon 11:55:46 AM 59.8167 -56.4500 248° West 480 552 36,000  Level Gander Center
Mon 11:56:46 AM 59.7333 -56.6500 230° Southwest 480 552 36,000  Level Gander Center
Mon 11:57:46 AM 59.6333 -56.8000 217° Southwest 480 552 36,000  Level Gander Center
Mon 11:58:46 AM 59.5167 -56.9833 219° Southwest 480 552 36,000  Level Gander Center
Mon 11:59:46 AM 59.4000 -57.1333 213° Southwest 480 552 36,000  Level Gander Center
Mon 12:00:46 PM 59.3167 -57.3000 226° Southwest 480 552 36,000  Level Gander Center
Mon 12:01:46 PM 59.2000 -57.4500 213° Southwest 480 552 36,000  Level Gander Center
Mon 12:02:46 PM 59.0833 -57.5833 210° Southwest 480 552 36,000  Level Gander Center
Mon 12:03:46 PM 58.9833 -57.7500 221° Southwest 480 552 36,000  Level Gander Center
Mon 12:04:46 PM 58.8833 -57.9000 218° Southwest 480 552 36,000  Level Gander Center
Mon 12:05:46 PM 58.7667 -58.0333 211° Southwest 480 552 36,000  Level Gander Center
Mon 12:06:46 PM 58.6667 -58.1667 215° Southwest 480 552 36,000  Level Gander Center
Mon 12:07:46 PM 58.5500 -58.3500 219° Southwest 480 552 36,000  Level Gander Center
Mon 12:08:46 PM 58.4333 -58.4833 211° Southwest 480 552 36,000  Level Gander Center
Mon 12:09:46 PM 58.3500 -58.6167 220° Southwest 480 552 36,000  Level Gander Center
Mon 12:10:46 PM 58.2500 -58.7833 221° Southwest 480 552 36,000  Level Gander Center
Mon 12:11:46 PM 58.1333 -58.9167 211° Southwest 470 541 36,000  Level Gander Center
Mon 12:12:46 PM 58.0167 -59.0500 211° Southwest 470 541 36,000  Level Gander Center
Mon 12:13:46 PM 57.9167 -59.2167 222° Southwest 470 541 36,000  Level Gander Center
Mon 12:14:46 PM 57.8000 -59.3500 211° Southwest 480 552 36,000  Level Gander Center
Mon 12:15:46 PM 57.7000 -59.5000 219° Southwest 440 506 36,000  Level Gander Center
Mon 12:16:46 PM 57.6000 -59.6333 216° Southwest 470 541 36,000  Level Gander Center
Mon 12:17:46 PM 57.5000 -59.7667 216° Southwest 470 541 36,000  Level Gander Center
Mon 12:18:46 PM 57.3833 -59.8833 208° Southwest 470 541 36,000  Level Gander Center
Mon 12:19:46 PM 57.2667 -60.0500 218° Southwest 480 552 36,000  Level Gander Center
Mon 12:20:41 PM 57.1667 -60.1667 212° Southwest 480 552 36,000  Level Gander Center
Mon 12:21:46 PM 57.0500 -60.3333 218° Southwest 470 541 36,000  Level Gander Center
Mon 12:22:46 PM 56.9333 -60.4500 209° Southwest 470 541 36,000  Level Gander Center
Mon 12:23:46 PM 56.8167 -60.6167 218° Southwest 460 529 36,000  Level Gander Center
Mon 12:24:46 PM 56.7167 -60.7333 213° Southwest 470 541 36,000  Level Gander Center
Mon 12:25:46 PM 56.6167 -60.8500 213° Southwest 470 541 36,000  Level Gander Center
Mon 12:26:46 PM 56.5000 -61.0167 218° Southwest 470 541 36,000  Level Gander Center
Mon 12:27:46 PM 56.4000 -61.1333 213° Southwest 470 541 36,000  Level Gander Center
Mon 12:28:46 PM 56.2833 -61.2500 209° Southwest 460 529 36,000  Level Gander Center
Mon 12:29:46 PM 56.1833 -61.3667 213° Southwest 460 529 36,000  Level Gander Center
Mon 12:30:46 PM 56.0667 -61.4833 209° Southwest 460 529 36,000  Level Gander Center
Mon 12:31:46 PM 55.9667 -61.6333 220° Southwest 460 529 36,000  Level Gander Center
Mon 12:32:46 PM 55.8500 -61.7500 209° Southwest 460 529 36,000  Level Gander Center
Mon 12:33:46 PM 55.7500 -61.8833 217° Southwest 460 529 36,000  Level Gander Center
Mon 12:34:46 PM 55.6500 -62.0000 213° Southwest 460 529 36,000  Level Gander Center
Mon 12:35:46 PM 55.5333 -62.1167 210° Southwest 460 529 36,000  Level Gander Center
Mon 12:36:46 PM 55.4333 -62.2500 217° Southwest 460 529 36,000  Level Gander Center
Mon 12:37:46 PM 55.3167 -62.3667 210° Southwest 460 529 36,000  Level Gander Center
Mon 12:38:46 PM 55.2167 -62.4833 214° Southwest 460 529 36,000  Level Gander Center
Mon 12:39:46 PM 55.1000 -62.6000 210° Southwest 460 529 36,000  Level Gander Center
Mon 12:40:46 PM 55.0000 -62.7167 214° Southwest 460 529 36,000  Level Gander Center
Mon 12:41:46 PM 54.8833 -62.8500 213° Southwest 460 529 36,000  Level Gander Center
Mon 12:42:46 PM 54.7833 -62.9667 214° Southwest 460 529 36,000  Level Gander Center
Mon 12:43:46 PM 54.6833 -63.0667 210° Southwest 450 518 36,000  Level Gander Center
Mon 12:44:46 PM 54.5667 -63.1833 210° Southwest 450 518 36,000  Level Gander Center
Mon 12:45:46 PM 54.4667 -63.3000 214° Southwest 450 518 36,000  Level Gander Center
Mon 12:46:46 PM 54.3500 -63.4000 207° Southwest 450 518 36,000  Level Gander Center
Mon 12:47:46 PM 54.2500 -63.5167 214° Southwest 450 518 36,000  Level Gander Center
Mon 12:48:46 PM 54.1500 -63.6500 218° Southwest 440 506 36,000  Level Gander Center
Mon 12:49:46 PM 54.0333 -63.7333 203° Southwest 440 506 36,000  Level Gander Center
Mon 12:50:46 PM 53.9333 -63.8333 210° Southwest 420 483 36,000  Level Gander Center
Mon 12:51:46 PM 53.8333 -63.9500 215° Southwest 420 483 36,000  Level Gander Center
Mon 12:52:46 PM 53.7333 -64.0500 211° Southwest 420 483 36,000  Level Gander Center
Mon 12:53:46 PM 53.6500 -64.1667 220° Southwest 420 483 36,000  Level Gander Center
Mon 12:54:46 PM 53.5500 -64.2667 211° Southwest 420 483 36,000  Level Gander Center
Mon 12:55:46 PM 53.4333 -64.3667 207° Southwest 420 483 36,000  Level Gander Center
Mon 12:56:46 PM 53.3333 -64.4500 206° Southwest 420 483 36,000  Level Gander Center
Mon 12:57:46 PM 53.2333 -64.5500 211° Southwest 420 483 36,000  Level Gander Center
Mon 12:58:46 PM 53.1500 -64.6500 216° Southwest 420 483 36,000  Level Gander Center
Mon 12:59:46 PM 53.0333 -64.7500 207° Southwest 420 483 36,000  Level Gander Center
Mon 01:00:46 PM 52.9333 -64.8667 215° Southwest 410 472 36,000  Level Gander Center
Mon 01:01:46 PM 52.8333 -64.9333 202° Southwest 410 472 36,000  Level Gander Center
Mon 01:02:46 PM 52.7333 -65.0333 211° Southwest 410 472 36,000  Level Gander Center
Mon 01:03:46 PM 52.6333 -65.1333 211° Southwest 410 472 36,000  Level Gander Center
Mon 01:04:46 PM 52.5500 -65.2500 220° Southwest 410 472 36,000  Level Gander Center
Mon 01:05:46 PM 52.4333 -65.3500 208° Southwest 410 472 36,000  Level Gander Center
Mon 01:06:46 PM 52.3333 -65.4167 202° Southwest 410 472 36,000  Level Gander Center
Mon 01:07:46 PM 52.2500 -65.5167 216° Southwest 410 472 36,000  Level Gander Center
Mon 01:08:46 PM 52.1500 -65.6167 212° Southwest 410 472 36,000  Level Gander Center
Mon 01:09:46 PM 52.0500 -65.6833 202° Southwest 410 472 36,000  Level Gander Center
Mon 01:10:46 PM 51.9333 -65.7833 208° Southwest 410 472 36,000  Level Gander Center
Mon 01:11:46 PM 51.8500 -65.8833 217° Southwest 420 483 36,000  Level Gander Center
Mon 01:12:23 PM 51.7667 -65.9333 200° South 430 495 36,000  Level Moncton Center
Mon 01:13:23 PM 51.6667 -66.0500 216° Southwest 430 495 36,000  Level Moncton Center
Mon 01:14:23 PM 51.5667 -66.1500 212° Southwest 430 495 36,000  Level Moncton Center
Mon 01:15:13 PM 51.4833 -66.1833 194° South 430 495 36,000  Level Montreal Center
Mon 01:16:13 PM 51.3833 -66.2667 207° Southwest 430 495 36,000  Level Montreal Center
Mon 01:17:13 PM 51.2667 -66.3667 208° Southwest 430 495 36,000  Level Montreal Center
Mon 01:18:13 PM 51.1833 -66.4500 212° Southwest 430 495 36,000  Level Montreal Center
Mon 01:19:13 PM 51.0667 -66.5500 208° Southwest 430 495 36,000  Level Montreal Center
Mon 01:20:13 PM 50.9500 -66.6500 208° Southwest 430 495 36,000  Level Montreal Center
Mon 01:21:13 PM 50.8667 -66.7167 207° Southwest 430 495 36,000  Level Montreal Center
Mon 01:22:13 PM 50.7500 -66.8333 212° Southwest 430 495 36,000  Level Montreal Center
Mon 01:22:46 PM 50.7000 -66.9167 227° Southwest 430 495 36,000  Level Gander Center
Mon 01:23:46 PM 50.5833 -67.0000 204° Southwest 430 495 36,000  Level Gander Center
Mon 01:24:46 PM 50.5000 -67.1000 217° Southwest 430 495 36,000  Level Gander Center
Mon 01:25:23 PM 50.4167 -67.1500 201° Southwest 430 495 36,000  Level Moncton Center
Mon 01:26:13 PM 50.3333 -67.1667 187° South 430 495 36,000  Level Montreal Center
Mon 01:27:13 PM 50.2333 -67.2667 213° Southwest 430 495 36,000  Level Montreal Center
Mon 01:28:13 PM 50.1167 -67.3667 209° Southwest 430 495 36,000  Level Montreal Center
Mon 01:28:46 PM 50.0500 -67.4500 219° Southwest 430 495 36,000  Level Gander Center
Mon 01:29:46 PM 49.9500 -67.5500 213° Southwest 430 495 36,000  Level Gander Center
Mon 01:30:46 PM 49.8500 -67.6333 208° Southwest 430 495 36,000  Level Gander Center
Mon 01:31:23 PM 49.7833 -67.6833 206° Southwest 430 495 36,000  Level Moncton Center
Mon 01:32:13 PM 49.7000 -67.7167 195° South 430 495 36,000  Level Montreal Center
Mon 01:33:13 PM 49.6000 -67.8000 208° Southwest 430 495 36,000  Level Montreal Center
Mon 01:34:13 PM 49.4833 -67.9000 209° Southwest 430 495 36,000  Level Montreal Center
Mon 01:35:13 PM 49.3833 -67.9667 203° Southwest 430 495 36,000  Level Montreal Center
Mon 01:36:13 PM 49.2833 -68.0667 213° Southwest 430 495 36,000  Level Montreal Center
Mon 01:37:13 PM 49.1667 -68.1667 209° Southwest 430 495 36,000  Level Montreal Center
Mon 01:38:13 PM 49.0667 -68.2833 217° Southwest 430 495 36,000  Level Montreal Center
Mon 01:39:13 PM 49.0000 -68.4000 229° Southwest 420 483 36,000  Level Montreal Center
Mon 01:40:13 PM 48.9000 -68.5167 218° Southwest 420 483 36,000  Level Montreal Center
Mon 01:41:13 PM 48.8000 -68.6333 218° Southwest 420 483 36,000  Level Montreal Center
Mon 01:46:34 PM 48.3670 -69.3190 218° Southwest 431 496 36,000  Level FlightAware ADS-B
Mon 01:47:10 PM 48.3670 -69.3190 218° Southwest 433 498 36,000  Level FlightAware ADS-B
Mon 01:47:50 PM 48.2530 -69.4770 223° Southwest 433 498 36,000  Level FlightAware ADS-B
Mon 01:48:49 PM 48.1680 -69.5950 223° Southwest 434 499 36,000  Level FlightAware ADS-B
Mon 01:49:30 PM 48.1060 -69.6800 222° Southwest 435 501 36,000  Level FlightAware ADS-B
Mon 01:50:15 PM 48.0370 -69.7750 223° Southwest 435 501 36,000  Level FlightAware ADS-B
Mon 01:51:09 PM 47.9580 -69.8840 223° Southwest 433 498 36,000  Level FlightAware ADS-B
Mon 01:51:50 PM 47.8960 -69.9680 222° Southwest 433 498 36,000  Level FlightAware ADS-B
Mon 01:52:34 PM 47.8310 -70.0560 222° Southwest 433 498 36,000  Level FlightAware ADS-B
Mon 01:53:10 PM 47.7770 -70.1290 222° Southwest 433 498 36,000  Level FlightAware ADS-B
Mon 01:54:09 PM 47.6890 -70.2490 223° Southwest 431 496 36,000  Level FlightAware ADS-B
Mon 01:54:49 PM 47.6360 -70.3200 222° Southwest 431 496 36,000  Level FlightAware ADS-B
Mon 01:55:35 PM 47.5670 -70.4130 222° Southwest 433 498 36,000  Level FlightAware ADS-B
Mon 01:56:20 PM 47.4990 -70.5030 222° Southwest 433 498 36,000  Level FlightAware ADS-B
Mon 01:56:55 PM 47.4460 -70.5740 222° Southwest 433 498 36,000  Level FlightAware ADS-B
Mon 01:57:40 PM 47.3780 -70.6630 222° Southwest 432 497 36,000  Level FlightAware ADS-B
Mon 01:58:20 PM 47.3190 -70.7420 222° Southwest 433 498 36,000  Level FlightAware ADS-B
Mon 01:59:04 PM 47.2500 -70.8320 222° Southwest 433 498 36,000  Level FlightAware ADS-B
Mon 01:59:45 PM 47.1910 -70.9100 222° Southwest 433 498 36,000  Level FlightAware ADS-B
Mon 02:00:25 PM 47.1360 -70.9820 222° Southwest 434 499 36,000  Level FlightAware ADS-B
Mon 02:01:10 PM 47.0650 -71.0750 222° Southwest 434 499 36,000  Level FlightAware ADS-B
Mon 02:01:54 PM 46.9970 -71.1630 221° Southwest 435 501 36,000  Level FlightAware ADS-B
Mon 02:02:36 PM 46.9360 -71.2430 222° Southwest 436 502 36,000  Level FlightAware ADS-B
Mon 02:03:20 PM 46.8690 -71.3290 221° Southwest 437 503 36,000  Level FlightAware ADS-B
Mon 02:03:55 PM 46.8160 -71.3970 221° Southwest 437 503 36,000  Level FlightAware ADS-B
Mon 02:04:38 PM 46.7560 -71.4740 221° Southwest 437 503 36,000  Level FlightAware ADS-B
Mon 02:05:20 PM 46.6900 -71.5590 221° Southwest 437 503 36,000 -207 Level FlightAware ADS-B
Mon 02:06:05 PM 46.6240 -71.6430 221° Southwest 435 501 35,700 -847 Descending FlightAware ADS-B
Mon 02:06:45 PM 46.5600 -71.7240 221° Southwest 438 504 34,800 -1,125 Descending FlightAware ADS-B
Mon 02:07:25 PM 46.4970 -71.8060 222° Southwest 437 503 34,200 -1,200 Descending FlightAware ADS-B
Mon 02:08:10 PM 46.4350 -71.9010 227° Southwest 428 493 33,100 -1,955 Descending FlightAware ADS-B
Mon 02:08:54 PM 46.3750 -71.9940 227° Southwest 419 482 31,300 -2,357 Descending FlightAware ADS-B
Mon 02:09:34 PM 46.3230 -72.0730 226° Southwest 411 473 29,800 -2,286 Descending FlightAware ADS-B
Mon 02:10:18 PM 46.2660 -72.1590 226° Southwest 403 464 28,100 -2,341 Descending FlightAware ADS-B
Mon 02:10:56 PM 46.2170 -72.2320 226° Southwest 396 456 26,600 -2,357 Descending FlightAware ADS-B
Mon 02:11:42 PM 46.1580 -72.3200 226° Southwest 389 448 24,800 -2,333 Descending FlightAware ADS-B
Mon 02:12:26 PM 46.1040 -72.4010 226° Southwest 383 441 23,100 -2,286 Descending FlightAware ADS-B
Mon 02:13:06 PM 46.0560 -72.4730 226° Southwest 377 434 21,600 -2,214 Descending FlightAware ADS-B
Mon 02:13:50 PM 46.0030 -72.5510 226° Southwest 371 427 20,000 -2,214 Descending FlightAware ADS-B
Mon 02:14:30 PM 45.9560 -72.6220 226° Southwest 363 418 18,500 -1,952 Descending FlightAware ADS-B
Mon 02:15:13 PM 45.9080 -72.6930 226° Southwest 345 397 17,300 -1,929 Descending FlightAware ADS-B
Mon 02:15:54 PM 45.8630 -72.7590 226° Southwest 338 389 15,800 -2,313 Descending FlightAware ADS-B
Mon 02:16:36 PM 45.8170 -72.8270 226° Southwest 311 358 14,100 -2,093 Descending FlightAware ADS-B
Mon 02:17:20 PM 45.7740 -72.8900 226° Southwest 304 350 12,800 -1,857 Descending FlightAware ADS-B
Mon 02:18:00 PM 45.7350 -72.9490 227° Southwest 299 344 11,500 -1,853 Descending FlightAware ADS-B
Mon 02:18:28 PM 45.7220 -72.9970 249° West 285 328 10,700 -1,182 Descending FlightAware ADS-B
Mon 02:19:06 PM 45.7140 -73.0650 260° West 250 288 10,200 -643 Descending FlightAware ADS-B
Mon 02:19:52 PM 45.7060 -73.1340 261° West 221 254 9,800 -711 Descending FlightAware ADS-B
Mon 02:20:22 PM 45.6990 -73.1780 257° West 229 264 9,300 -1,448 Descending FlightAware ADS-B
Mon 02:20:50 PM 45.6920 -73.2210 257° West 250 288 8,400 -1,929 Descending FlightAware ADS-B
Mon 02:21:18 PM 45.6850 -73.2650 257° West 241 277 7,500 -1,556 Descending FlightAware ADS-B
Mon 02:21:44 PM 45.6780 -73.3040 256° West 219 252 7,000 -1,250 Descending FlightAware ADS-B
Mon 02:22:06 PM 45.6730 -73.3340 257° West 209 241 6,500 -1,227 Descending FlightAware ADS-B
Mon 02:22:28 PM 45.6680 -73.3620 256° West 207 238 6,100 -1,320 Descending FlightAware ADS-B
Mon 02:22:56 PM 45.6620 -73.4000 257° West 211 243 5,400 -1,421 Descending FlightAware ADS-B
Mon 02:23:06 PM 45.6590 -73.4140 253° West 212 244 5,200 -1,263 Descending FlightAware ADS-B
Mon 02:23:34 PM 45.6520 -73.4530 256° West 213 245 4,600 -1,304 Descending FlightAware ADS-B
Mon 02:23:52 PM 45.6480 -73.4780 257° West 212 244 4,200 -1,091 Descending FlightAware ADS-B
Mon 02:24:18 PM 45.6420 -73.5120 256° West 209 241 3,800 -1,143 Descending FlightAware ADS-B
Mon 02:24:34 PM 45.6360 -73.5320 247° West 209 241 3,400 -1,286 Descending FlightAware ADS-B
Mon 02:24:46 PM 45.6290 -73.5440 230° Southwest 210 242 3,200 -585 Descending FlightAware ADS-B
Mon 02:25:15 PM 45.6090 -73.5700 222° Southwest 193 222 3,000 -267 Descending FlightAware ADS-B
Mon 02:25:31 PM 45.5990 -73.5840 224° Southwest 186 214 3,000 -286 Level FlightAware ADS-B
Mon 02:25:57 PM 45.5830 -73.6040 221° Southwest 168 193 2,800 -750 Descending FlightAware ADS-B
Mon 02:26:27 PM 45.5670 -73.6270 225° Southwest 164 189 2,300 -857 Descending FlightAware ADS-B
Mon 02:26:53 PM 45.5520 -73.6460 222° Southwest 157 181 2,000 -750 Descending FlightAware ADS-B
Mon 02:27:23 PM 45.5370 -73.6660 223° Southwest 145 167 1,600 -750 Descending FlightAware ADS-B
Mon 02:27:49 PM 45.5240 -73.6820 221° Southwest 144 166 1,300 -750 Descending FlightAware ADS-B
Mon 02:28:19 PM 45.5100 -73.7000 222° Southwest 133 153 900 -764 Descending FlightAware ADS-B
Mon 02:28:44 PM 45.4990 -73.7150 224° Southwest 137 158 600 -750 Descending FlightAware ADS-B
Mon 02:28:59 PM 45.4920 -73.7250 225° Southwest 143 165 400 -632 Descending FlightAware ADS-B
Mon 02:29:22 PM 45.4810 -73.7390 222° Southwest 138 159 200 -522 Descending FlightAware ADS-B
Mon 02:29:52 PM 45.4710 -73.7520 222° Southwest 54 62 -400 Descending FlightAware ADS-B
Mon 02:30:22 PM 45.4680 -73.7550 215° Southwest 19 22  Level FlightAware ADS-B
Mon 02:30:37 PM 45.4670 -73.7560 215° Southwest 18 21  Level FlightAware ADS-B
Mon 02:30:52 PM 45.4660 -73.7560 180° South 15 17  Level FlightAware ADS-B
Mon 02:31:17 PM 45.4650 -73.7570 215° Southwest 11 13  Level FlightAware ADS-B
Mon 02:31:47 PM 45.4630 -73.7570 180° South 13 15  Level FlightAware ADS-B

Login

Don't have an account? Register now (free) for customized features, flight alerts, and more!